Time;durP1;ratioP1;P1;durP2;ratioP2;P2;SDS_P1;SDS_P2;PMS_P1;PMS_P2;Temp;Humidity;BMP_temperature;BMP_pressure;BME280_temperature;BME280_humidity;BME280_pressure;Samples;Min_cycle;Max_cycle;Signal;HPM_P1;HPM_P2
2023/04/17 00:00:06;;;;;;;32.03;19.80;;;9.90;99.90;;;;;;5102587;27;20046;-89
2023/04/17 00:02:31;;;;;;;33.40;19.33;;;9.90;99.90;;;;;;5120053;27;20081;-89
2023/04/17 00:04:57;;;;;;;38.03;19.85;;;9.90;99.90;;;;;;5103518;27;20035;-89
2023/04/17 00:07:23;;;;;;;31.25;18.58;;;9.90;99.90;;;;;;5121313;27;20034;-89
2023/04/17 00:09:49;;;;;;;33.30;19.48;;;9.80;99.90;;;;;;5119789;27;20058;-89
2023/04/17 00:12:14;;;;;;;37.38;20.80;;;9.80;99.90;;;;;;5107349;27;20372;-90
2023/04/17 00:14:41;;;;;;;34.30;19.60;;;9.80;99.90;;;;;;5101664;27;20328;-89
2023/04/17 00:17:07;;;;;;;36.08;19.33;;;9.80;99.90;;;;;;5123957;27;20067;-89
2023/04/17 00:19:32;;;;;;;32.25;19.40;;;9.90;99.90;;;;;;5106872;27;20034;-89
2023/04/17 00:21:58;;;;;;;34.05;18.33;;;9.80;99.90;;;;;;5104742;27;20090;-89
2023/04/17 00:24:24;;;;;;;36.55;19.38;;;9.80;99.90;;;;;;5107425;27;20531;-90
2023/04/17 00:26:49;;;;;;;33.20;18.52;;;9.80;99.90;;;;;;5120457;27;20092;-89
2023/04/17 00:29:15;;;;;;;35.28;19.45;;;9.80;99.90;;;;;;5110564;27;20119;-89
2023/04/17 00:31:40;;;;;;;36.53;19.67;;;9.70;99.90;;;;;;5134524;27;20049;-89
2023/04/17 00:34:06;;;;;;;34.25;20.23;;;9.70;99.90;;;;;;5124677;27;20039;-90
2023/04/17 00:36:32;;;;;;;36.08;20.40;;;9.80;99.90;;;;;;5075807;28;20100;-89
2023/04/17 00:38:58;;;;;;;37.25;19.50;;;9.70;99.90;;;;;;5076909;28;20409;-90
2023/04/17 00:41:23;;;;;;;38.83;20.85;;;9.70;99.90;;;;;;5082907;28;20471;-89
2023/04/17 00:43:49;;;;;;;35.90;19.80;;;9.80;99.90;;;;;;5105791;27;20495;-89
2023/04/17 00:46:15;;;;;;;37.38;20.92;;;9.70;99.90;;;;;;5103946;27;20126;-89
2023/04/17 00:48:42;;;;;;;40.67;20.48;;;9.70;99.90;;;;;;5120523;27;20062;-88
2023/04/17 00:51:08;;;;;;;37.10;20.77;;;9.80;99.90;;;;;;5105167;27;20050;-88
2023/04/17 00:53:35;;;;;;;38.40;21.77;;;9.70;99.90;;;;;;5104829;27;20491;-89
2023/04/17 00:56:05;;;;;;;39.15;20.55;;;9.70;99.90;;;;;;5123135;27;20069;-89
2023/04/17 00:58:32;;;;;;;39.78;21.55;;;9.80;99.90;;;;;;5124159;27;20029;-89
2023/04/17 01:00:58;;;;;;;42.05;20.92;;;9.80;99.90;;;;;;5104627;27;20039;-89
2023/04/17 01:03:24;;;;;;;42.05;21.70;;;9.80;99.90;;;;;;5105229;27;20037;-88
2023/04/17 01:05:51;;;;;;;41.72;21.05;;;9.80;99.90;;;;;;5105310;27;20133;-89
2023/04/17 01:08:18;;;;;;;45.38;22.13;;;9.70;99.90;;;;;;5107317;27;20046;-90
2023/04/17 01:10:43;;;;;;;40.88;23.48;;;9.70;99.90;;;;;;5105387;27;20034;-89
2023/04/17 01:13:09;;;;;;;49.40;23.95;;;9.70;99.90;;;;;;5098462;28;20039;-89
2023/04/17 01:15:35;;;;;;;39.75;22.05;;;9.80;99.90;;;;;;5076518;28;20072;-89
2023/04/17 01:18:01;;;;;;;47.70;24.27;;;9.70;99.90;;;;;;5082680;28;20063;-89
2023/04/17 01:20:31;;;;;;;43.10;21.80;;;9.80;99.90;;;;;;5121165;27;20134;-90
2023/04/17 01:22:57;;;;;;;41.10;21.73;;;9.80;99.90;;;;;;5103203;27;20430;-90
2023/04/17 01:25:23;;;;;;;44.08;23.08;;;9.80;99.90;;;;;;5102923;27;20125;-89
2023/04/17 01:27:49;;;;;;;44.47;24.90;;;9.80;99.90;;;;;;5098090;28;20043;-89
2023/04/17 01:30:15;;;;;;;42.22;22.75;;;9.80;99.90;;;;;;5095662;28;20050;-89
2023/04/17 01:32:41;;;;;;;43.88;23.17;;;9.80;99.90;;;;;;5095533;28;20043;-91
2023/04/17 01:35:07;;;;;;;46.00;23.05;;;9.80;99.90;;;;;;5096345;28;20116;-90
2023/04/17 01:37:33;;;;;;;42.15;21.40;;;9.80;99.90;;;;;;5094321;28;20031;-91
2023/04/17 01:39:59;;;;;;;48.58;24.08;;;9.80;99.90;;;;;;5095349;27;20035;-89
2023/04/17 01:42:25;;;;;;;47.83;23.55;;;9.80;99.90;;;;;;5098240;27;20114;-91
2023/04/17 01:44:51;;;;;;;45.53;22.02;;;9.80;99.90;;;;;;5116142;27;20043;-90
2023/04/17 01:47:16;;;;;;;44.85;22.85;;;9.80;99.90;;;;;;5100201;27;20466;-90
2023/04/17 01:49:42;;;;;;;45.33;23.88;;;9.80;99.90;;;;;;5097785;27;20550;-90
2023/04/17 01:52:07;;;;;;;45.28;24.00;;;9.80;99.90;;;;;;5100084;27;20039;-90
2023/04/17 01:54:33;;;;;;;42.92;23.63;;;9.80;99.90;;;;;;5099658;27;20039;-90
2023/04/17 01:56:59;;;;;;;45.92;21.73;;;9.80;99.90;;;;;;5086760;28;20035;-91
2023/04/17 01:59:24;;;;;;;43.58;22.27;;;9.70;99.90;;;;;;5079792;28;20044;-91
2023/04/17 02:01:50;;;;;;;41.65;23.15;;;9.80;99.90;;;;;;5103314;28;20032;-90
2023/04/17 02:04:16;;;;;;;50.08;23.88;;;9.70;99.90;;;;;;5079167;28;20040;-90
2023/04/17 02:06:42;;;;;;;45.35;23.88;;;9.80;99.90;;;;;;5088542;27;20042;-91
2023/04/17 02:09:07;;;;;;;45.33;23.88;;;9.70;99.90;;;;;;5116830;27;20095;-90
2023/04/17 02:11:33;;;;;;;46.58;23.67;;;9.70;99.90;;;;;;5115944;27;20118;-90
2023/04/17 02:13:59;;;;;;;47.05;23.83;;;9.70;99.90;;;;;;5098740;27;20088;-91
2023/04/17 02:16:25;;;;;;;43.22;22.00;;;9.70;99.90;;;;;;5116223;27;20644;-90
2023/04/17 02:18:51;;;;;;;47.38;25.75;;;9.70;99.90;;;;;;5098451;27;20110;-90
2023/04/17 02:21:17;;;;;;;47.90;24.45;;;9.70;99.90;;;;;;5097511;28;20177;-90
2023/04/17 02:23:43;;;;;;;41.80;23.17;;;9.70;99.90;;;;;;5098186;27;20122;-90
2023/04/17 02:26:09;;;;;;;45.03;25.35;;;9.70;99.90;;;;;;5083680;28;20116;-90
2023/04/17 02:28:34;;;;;;;47.90;24.25;;;9.70;99.90;;;;;;5095991;28;20074;-90
2023/04/17 02:31:00;;;;;;;49.13;23.67;;;9.70;99.90;;;;;;5101739;27;20042;-90
2023/04/17 02:33:26;;;;;;;48.35;24.33;;;9.70;99.90;;;;;;5080355;28;20145;-90
2023/04/17 02:35:52;;;;;;;44.28;23.38;;;9.80;99.90;;;;;;5096552;27;20567;-90
2023/04/17 02:38:18;;;;;;;44.53;25.48;;;9.80;99.90;;;;;;5115046;27;20492;-90
2023/04/17 02:40:43;;;;;;;41.13;23.95;;;9.70;99.90;;;;;;5098338;27;20139;-90
2023/04/17 02:43:09;;;;;;;37.00;21.92;;;9.70;99.90;;;;;;5098112;27;20042;-90
2023/04/17 02:45:35;;;;;;;46.70;24.80;;;9.70;99.90;;;;;;5099160;27;20038;-90
2023/04/17 02:48:01;;;;;;;42.92;24.80;;;9.70;99.90;;;;;;5115036;27;20605;-90
2023/04/17 02:50:27;;;;;;;42.72;23.40;;;9.70;99.90;;;;;;5079786;28;20048;-90
2023/04/17 02:52:53;;;;;;;47.28;24.30;;;9.70;99.90;;;;;;5077541;28;20080;-90
2023/04/17 02:55:19;;;;;;;45.17;23.75;;;9.70;99.90;;;;;;5108793;27;20046;-90
2023/04/17 02:57:45;;;;;;;42.58;25.08;;;9.70;99.90;;;;;;5098329;27;20035;-90
2023/04/17 03:00:14;;;;;;;43.10;23.80;;;9.70;99.90;;;;;;5097576;27;20106;-90
2023/04/17 03:02:40;;;;;;;42.83;24.08;;;9.70;99.90;;;;;;5114722;27;20035;-90
2023/04/17 03:05:06;;;;;;;43.05;25.30;;;9.70;99.90;;;;;;5097689;27;20087;-90
2023/04/17 03:07:32;;;;;;;42.28;25.33;;;9.70;99.90;;;;;;5097649;27;20089;-90
2023/04/17 03:09:58;;;;;;;44.17;25.33;;;9.70;99.90;;;;;;5097610;27;20037;-91
2023/04/17 03:12:24;;;;;;;47.10;25.98;;;9.70;99.90;;;;;;5097406;27;20035;-90
2023/04/17 03:14:50;;;;;;;42.90;24.48;;;9.70;99.90;;;;;;5115275;27;20039;-90
2023/04/17 03:17:16;;;;;;;47.20;25.45;;;9.70;99.90;;;;;;5096983;27;20492;-88
2023/04/17 03:19:42;;;;;;;49.17;25.77;;;9.70;99.90;;;;;;5097751;27;20031;-89
2023/04/17 03:22:08;;;;;;;43.47;22.98;;;9.70;99.90;;;;;;5114495;27;20118;-88
2023/04/17 03:24:33;;;;;;;45.70;23.98;;;9.70;99.90;;;;;;5096763;27;20031;-88
2023/04/17 03:27:01;;;;;;;47.10;24.60;;;9.70;99.90;;;;;;5097312;27;20400;-89
2023/04/17 03:29:26;;;;;;;43.58;24.95;;;9.70;99.90;;;;;;5097575;27;20605;-88
2023/04/17 03:31:52;;;;;;;43.35;24.50;;;9.70;99.90;;;;;;5092937;28;20078;-88
2023/04/17 03:34:20;;;;;;;48.47;25.75;;;9.70;99.90;;;;;;5094462;28;20405;-88
2023/04/17 03:36:46;;;;;;;47.50;24.77;;;9.70;99.90;;;;;;5094304;28;20538;-88
2023/04/17 03:39:11;;;;;;;48.83;24.77;;;9.70;99.90;;;;;;5091347;27;20118;-88
2023/04/17 03:41:37;;;;;;;39.80;23.15;;;9.70;99.90;;;;;;5096601;27;20152;-88
2023/04/17 03:44:04;;;;;;;54.40;25.65;;;9.70;99.90;;;;;;5097070;27;20080;-89
2023/04/17 03:46:30;;;;;;;47.72;25.33;;;9.70;99.90;;;;;;5101837;28;20042;-89
2023/04/17 03:48:56;;;;;;;43.65;25.38;;;9.70;99.90;;;;;;5076751;28;20043;-89
2023/04/17 03:51:21;;;;;;;46.40;25.27;;;9.70;99.90;;;;;;5084381;28;20042;-88
2023/04/17 03:53:47;;;;;;;46.28;24.30;;;9.70;99.90;;;;;;5093902;28;20057;-89
2023/04/17 03:56:13;;;;;;;44.47;25.67;;;9.70;99.90;;;;;;5078968;27;20084;-89
2023/04/17 03:58:38;;;;;;;44.05;24.30;;;9.70;99.90;;;;;;5083023;28;20035;-89
2023/04/17 04:01:09;;;;;;;42.83;23.90;;;9.70;99.90;;;;;;5092960;28;20508;-88
2023/04/17 04:03:35;;;;;;;43.38;24.20;;;9.70;99.90;;;;;;5083302;28;20039;-88
2023/04/17 04:06:01;;;;;;;39.42;23.33;;;9.70;99.90;;;;;;5076284;28;20057;-88
2023/04/17 04:08:27;;;;;;;43.70;24.00;;;9.70;99.90;;;;;;5084140;27;20455;-88
2023/04/17 04:10:52;;;;;;;46.60;23.45;;;9.70;99.90;;;;;;5076069;28;20047;-89
2023/04/17 04:13:18;;;;;;;44.28;23.23;;;9.70;99.90;;;;;;5076231;28;20183;-88
2023/04/17 04:15:44;;;;;;;43.67;22.85;;;9.70;99.90;;;;;;5093593;28;20027;-88
2023/04/17 04:18:09;;;;;;;45.78;23.70;;;9.70;99.90;;;;;;5077357;28;20165;-88
2023/04/17 04:20:35;;;;;;;43.88;24.50;;;9.70;99.90;;;;;;5096973;27;20027;-88
2023/04/17 04:23:03;;;;;;;44.22;23.55;;;9.70;99.90;;;;;;5112018;27;20473;-88
2023/04/17 04:25:29;;;;;;;48.50;24.63;;;9.70;99.90;;;;;;5096510;27;20121;-89
2023/04/17 04:27:55;;;;;;;47.30;24.20;;;9.70;99.90;;;;;;5095457;27;20052;-88
2023/04/17 04:30:24;;;;;;;46.38;23.48;;;9.70;99.90;;;;;;5076316;28;20032;-88
2023/04/17 04:32:50;;;;;;;40.15;23.30;;;9.60;99.90;;;;;;5076743;28;20039;-89
2023/04/17 04:35:16;;;;;;;46.25;24.17;;;9.60;99.90;;;;;;5084551;28;20062;-89
2023/04/17 04:37:45;;;;;;;47.33;24.35;;;9.60;99.90;;;;;;5077784;28;20039;-88
2023/04/17 04:40:11;;;;;;;41.95;24.67;;;9.60;99.90;;;;;;5082007;27;20035;-88
2023/04/17 04:42:40;;;;;;;40.08;23.40;;;9.60;99.90;;;;;;5096552;27;20117;-88
2023/04/17 04:45:07;;;;;;;38.97;23.52;;;9.60;99.90;;;;;;5096556;27;20054;-88
2023/04/17 04:47:32;;;;;;;40.33;22.58;;;9.60;99.90;;;;;;5095792;27;20569;-89
2023/04/17 04:49:58;;;;;;;42.88;23.42;;;9.60;99.90;;;;;;5113589;27;20118;-89
2023/04/17 04:52:25;;;;;;;45.65;22.80;;;9.60;99.90;;;;;;5113451;27;20042;-88
2023/04/17 04:54:51;;;;;;;45.22;24.05;;;9.60;99.90;;;;;;5095505;27;20081;-88
2023/04/17 04:57:16;;;;;;;42.83;22.23;;;9.60;99.90;;;;;;5095444;27;20031;-88
2023/04/17 04:59:42;;;;;;;42.90;23.75;;;9.60;99.90;;;;;;5094327;27;20035;-88
2023/04/17 05:02:08;;;;;;;48.55;23.98;;;9.60;99.90;;;;;;5095238;27;20035;-88
2023/04/17 05:04:33;;;;;;;42.13;22.30;;;9.60;99.90;;;;;;5111618;28;20773;-88
2023/04/17 05:06:59;;;;;;;43.15;23.15;;;9.60;99.90;;;;;;5086424;27;20031;-89
2023/04/17 05:09:25;;;;;;;44.05;23.45;;;9.60;99.90;;;;;;5095357;27;20039;-88
2023/04/17 05:11:53;;;;;;;42.75;24.13;;;9.60;99.90;;;;;;5091289;28;20104;-88
2023/04/17 05:14:19;;;;;;;49.88;24.08;;;9.60;99.90;;;;;;5075179;28;20496;-88
2023/04/17 05:16:45;;;;;;;48.05;22.98;;;9.60;99.90;;;;;;5098502;28;20035;-88
2023/04/17 05:19:10;;;;;;;48.88;22.58;;;9.60;99.90;;;;;;5116875;27;20039;-88
2023/04/17 05:21:36;;;;;;;42.83;21.98;;;9.60;99.90;;;;;;5119054;27;20031;-87
2023/04/17 05:24:02;;;;;;;47.58;22.45;;;9.60;99.90;;;;;;5102060;27;20039;-88
2023/04/17 05:26:27;;;;;;;46.40;21.88;;;9.60;99.90;;;;;;5101963;27;20043;-88
2023/04/17 05:28:53;;;;;;;44.58;22.38;;;9.60;99.90;;;;;;5102963;27;20659;-89
2023/04/17 05:31:19;;;;;;;45.95;22.77;;;9.60;99.90;;;;;;5098928;27;20031;-89
2023/04/17 05:33:45;;;;;;;45.40;23.17;;;9.60;99.90;;;;;;5102355;27;20047;-89
2023/04/17 05:36:10;;;;;;;46.58;22.27;;;9.60;99.90;;;;;;5102466;27;20080;-88
2023/04/17 05:38:36;;;;;;;43.85;20.98;;;9.60;99.90;;;;;;5093227;28;20378;-88
2023/04/17 05:41:02;;;;;;;43.30;21.88;;;9.60;99.90;;;;;;5081853;28;20028;-88
2023/04/17 05:43:27;;;;;;;42.30;22.10;;;9.60;99.90;;;;;;5089727;27;20039;-88
2023/04/17 05:45:53;;;;;;;46.38;22.02;;;9.60;99.90;;;;;;5098878;28;20502;-88
2023/04/17 05:48:19;;;;;;;45.92;22.48;;;9.60;99.90;;;;;;5086540;27;20122;-88
2023/04/17 05:50:44;;;;;;;43.92;22.58;;;9.60;99.90;;;;;;5084635;28;20039;-88
2023/04/17 05:53:10;;;;;;;46.80;22.40;;;9.70;99.90;;;;;;5081645;28;20168;-89
2023/04/17 05:55:36;;;;;;;45.67;23.77;;;9.70;99.90;;;;;;5081851;27;20047;-89
2023/04/17 05:58:01;;;;;;;40.85;20.85;;;9.70;99.90;;;;;;5119228;27;20499;-89
2023/04/17 06:00:27;;;;;;;47.30;23.23;;;9.70;99.90;;;;;;5101988;27;20062;-89
2023/04/17 06:02:53;;;;;;;42.80;20.98;;;9.70;99.90;;;;;;5101429;27;20515;-88
2023/04/17 06:05:19;;;;;;;40.03;21.73;;;9.80;99.90;;;;;;5101867;27;20046;-89
2023/04/17 06:07:45;;;;;;;41.08;21.88;;;9.80;99.90;;;;;;5092095;27;20039;-89
2023/04/17 06:10:11;;;;;;;39.53;21.25;;;9.80;99.90;;;;;;5102200;27;20461;-89
2023/04/17 06:12:37;;;;;;;40.13;20.77;;;9.80;99.90;;;;;;5092945;27;20035;-88
2023/04/17 06:15:04;;;;;;;37.72;19.70;;;9.80;99.90;;;;;;5100714;27;20036;-88
2023/04/17 06:17:30;;;;;;;44.72;22.60;;;9.80;99.90;;;;;;5118987;27;20035;-88
2023/04/17 06:19:56;;;;;;;39.67;20.45;;;9.90;99.90;;;;;;5117841;27;20046;-88
2023/04/17 06:22:21;;;;;;;41.35;22.58;;;9.90;99.90;;;;;;5105526;27;20031;-88
2023/04/17 06:24:47;;;;;;;37.13;20.05;;;9.90;99.90;;;;;;5118445;27;20546;-88
2023/04/17 06:27:13;;;;;;;36.75;20.55;;;9.90;99.90;;;;;;5117081;27;20518;-89
2023/04/17 06:29:39;;;;;;;40.20;20.77;;;9.90;99.90;;;;;;5098439;27;20042;-88
2023/04/17 06:32:05;;;;;;;37.60;20.30;;;9.90;99.90;;;;;;5092322;27;20078;-89
2023/04/17 06:34:31;;;;;;;39.30;20.02;;;9.90;99.90;;;;;;5088457;28;20536;-91
2023/04/17 06:36:58;;;;;;;38.83;19.85;;;9.90;99.90;;;;;;5090063;27;20095;-90
2023/04/17 06:39:23;;;;;;;36.22;19.33;;;10.00;99.90;;;;;;5078324;28;20389;-90
2023/04/17 06:41:49;;;;;;;37.72;19.25;;;9.90;99.90;;;;;;5101109;27;20499;-90
2023/04/17 06:44:15;;;;;;;36.55;19.80;;;10.00;99.90;;;;;;5098169;27;20034;-88
2023/04/17 06:46:41;;;;;;;38.42;21.58;;;10.00;99.90;;;;;;5115055;27;20035;-89
2023/04/17 06:49:06;;;;;;;37.95;21.05;;;10.00;99.90;;;;;;5097550;27;20035;-89
2023/04/17 06:51:32;;;;;;;35.50;20.55;;;10.00;99.90;;;;;;5098027;27;20404;-89
2023/04/17 06:53:58;;;;;;;33.25;20.50;;;10.10;99.90;;;;;;5094645;27;20051;-89
2023/04/17 06:56:24;;;;;;;38.38;21.10;;;10.10;99.90;;;;;;5091940;27;20039;-89
2023/04/17 06:58:51;;;;;;;36.78;18.40;;;10.10;99.90;;;;;;5098141;27;20031;-89
2023/04/17 07:01:17;;;;;;;35.17;19.50;;;10.10;99.90;;;;;;5088569;28;20497;-89
2023/04/17 07:03:42;;;;;;;35.53;17.95;;;10.10;99.90;;;;;;5094556;28;20039;-90
2023/04/17 07:06:09;;;;;;;35.25;19.17;;;10.10;99.90;;;;;;5096969;27;20032;-89
2023/04/17 07:08:34;;;;;;;38.33;20.15;;;10.20;99.90;;;;;;5097537;27;20485;-90
2023/04/17 07:11:01;;;;;;;37.97;20.63;;;10.20;99.90;;;;;;5098175;27;20050;-89
2023/04/17 07:13:30;;;;;;;34.90;20.92;;;10.20;99.90;;;;;;5095882;27;20071;-89
2023/04/17 07:15:56;;;;;;;38.60;20.15;;;10.30;99.90;;;;;;5097965;27;20050;-88
2023/04/17 07:18:28;;;;;;;35.40;20.42;;;10.30;99.90;;;;;;5115400;27;20058;-88
2023/04/17 07:20:54;;;;;;;36.75;19.90;;;10.30;99.90;;;;;;5088522;27;20049;-89
2023/04/17 07:23:20;;;;;;;36.47;20.50;;;10.40;99.90;;;;;;5116226;27;20039;-89
2023/04/17 07:25:45;;;;;;;34.90;18.58;;;10.40;99.90;;;;;;5122274;27;20046;-88
2023/04/17 07:28:11;;;;;;;31.65;18.27;;;10.40;99.90;;;;;;5094292;28;20096;-89
2023/04/17 07:30:37;;;;;;;32.72;18.83;;;10.50;99.90;;;;;;5079456;27;20126;-89
2023/04/17 07:33:02;;;;;;;34.40;20.27;;;10.60;99.90;;;;;;5115158;27;20053;-89
2023/04/17 07:35:28;;;;;;;33.75;19.15;;;10.70;99.90;;;;;;5124038;27;20038;-88
2023/04/17 07:37:56;;;;;;;36.70;19.88;;;10.70;99.90;;;;;;5123669;27;20499;-89
2023/04/17 07:40:22;;;;;;;32.92;21.27;;;10.80;99.90;;;;;;5094321;28;20050;-89
2023/04/17 07:42:48;;;;;;;37.55;20.75;;;10.80;99.90;;;;;;5077395;28;20027;-89
2023/04/17 07:45:13;;;;;;;33.80;19.23;;;10.90;99.90;;;;;;5107541;27;20551;-89
2023/04/17 07:47:39;;;;;;;34.72;18.90;;;10.90;99.90;;;;;;5097514;27;20031;-89
2023/04/17 07:50:05;;;;;;;32.70;20.08;;;11.00;99.90;;;;;;5113909;27;20039;-89
2023/04/17 07:52:31;;;;;;;34.10;20.35;;;11.00;99.90;;;;;;5096700;27;20039;-89
2023/04/17 07:54:56;;;;;;;31.95;18.65;;;11.10;99.90;;;;;;5096788;27;20042;-89
2023/04/17 07:57:25;;;;;;;35.00;21.13;;;11.10;99.90;;;;;;5092881;27;20122;-89
2023/04/17 07:59:54;;;;;;;34.55;20.65;;;11.10;99.90;;;;;;5076476;28;20124;-89
2023/04/17 08:02:20;;;;;;;31.77;19.75;;;11.20;99.90;;;;;;5076912;28;20089;-89
2023/04/17 08:04:46;;;;;;;34.30;20.13;;;11.30;99.90;;;;;;5084134;28;20112;-89
2023/04/17 08:07:11;;;;;;;35.45;20.02;;;11.30;99.90;;;;;;5092965;28;20047;-89
2023/04/17 08:09:38;;;;;;;31.52;19.60;;;11.40;99.90;;;;;;5099133;27;20031;-90
2023/04/17 08:12:04;;;;;;;34.25;19.83;;;11.40;99.90;;;;;;5095425;27;20395;-89
2023/04/17 08:14:30;;;;;;;32.40;21.00;;;11.40;99.90;;;;;;5111633;27;20035;-90
2023/04/17 08:16:56;;;;;;;34.60;19.45;;;11.50;99.90;;;;;;5114072;27;20522;-89
2023/04/17 08:19:21;;;;;;;30.60;20.15;;;11.50;99.90;;;;;;5097028;27;20043;-90
2023/04/17 08:21:48;;;;;;;32.75;19.77;;;11.50;99.90;;;;;;5085234;28;20047;-89
2023/04/17 08:24:15;;;;;;;34.90;20.92;;;11.60;99.90;;;;;;5109397;28;20036;-89
2023/04/17 08:26:40;;;;;;;34.25;20.67;;;11.70;99.90;;;;;;5130242;27;20032;-89
2023/04/17 08:29:07;;;;;;;33.63;20.00;;;11.70;99.90;;;;;;5113840;27;20042;-89
2023/04/17 08:31:35;;;;;;;35.72;22.15;;;11.80;99.90;;;;;;5096948;27;20031;-90
2023/04/17 08:34:01;;;;;;;33.13;19.92;;;11.80;99.90;;;;;;5086328;28;20036;-89
2023/04/17 08:36:27;;;;;;;35.08;19.67;;;11.90;99.90;;;;;;5104146;27;20042;-90
2023/04/17 08:38:53;;;;;;;33.53;19.27;;;12.00;99.90;;;;;;5130024;27;20035;-89
2023/04/17 08:41:21;;;;;;;35.88;20.98;;;12.00;99.90;;;;;;5089722;27;20035;-90
2023/04/17 08:43:49;;;;;;;37.25;22.27;;;12.10;99.90;;;;;;5101801;27;20039;-89
2023/04/17 08:46:15;;;;;;;36.63;24.05;;;12.10;99.90;;;;;;5105938;27;20035;-90
2023/04/17 08:48:41;;;;;;;33.83;21.88;;;12.10;99.90;;;;;;5105531;27;20038;-90
2023/04/17 08:51:07;;;;;;;36.85;24.35;;;12.20;99.90;;;;;;5107583;27;20046;-90
2023/04/17 08:53:33;;;;;;;37.00;21.17;;;12.30;99.90;;;;;;5095029;27;20039;-90
2023/04/17 08:56:04;;;;;;;38.88;22.63;;;12.30;99.90;;;;;;5112629;27;20042;-90
2023/04/17 08:58:33;;;;;;;37.13;22.60;;;12.40;99.90;;;;;;5110433;28;20052;-90
2023/04/17 09:01:16;;;;;;;39.88;35.67;;;12.50;99.90;;;;;;5075988;28;20035;-91
2023/04/17 09:03:47;;;;;;;37.20;23.35;;;12.70;99.90;;;;;;5083263;28;20050;-89
2023/04/17 09:06:14;;;;;;;40.70;25.10;;;12.70;99.90;;;;;;5095902;27;20039;-90
2023/04/17 09:08:59;;;;;;;38.67;25.02;;;12.80;99.90;;;;;;5112648;28;20039;-91
2023/04/17 09:11:25;;;;;;;40.28;36.10;;;12.90;99.90;;;;;;5076049;28;20500;-90
2023/04/17 09:13:51;;;;;;;37.22;23.17;;;13.10;99.90;;;;;;5078694;28;20038;-90
2023/04/17 09:16:20;;;;;;;34.25;22.13;;;13.20;99.90;;;;;;5112458;28;20054;-91
2023/04/17 09:18:46;;;;;;;36.10;25.45;;;13.20;99.90;;;;;;5082690;28;20476;-92
2023/04/17 09:21:17;;;;;;;38.15;34.20;;;13.30;99.90;;;;;;5100021;28;20039;-91
2023/04/17 09:23:51;;;;;;;32.67;22.55;;;13.50;99.90;;;;;;5075663;28;20453;-90
2023/04/17 09:26:22;;;;;;;36.78;22.42;;;13.50;99.90;;;;;;5109401;28;20540;-91
2023/04/17 09:29:15;;;;;;;36.45;32.78;;;13.60;99.90;;;;;;5112606;28;20078;-91
2023/04/17 09:31:41;;;;;;;32.22;22.23;;;13.80;99.90;;;;;;5094988;27;20047;-91
2023/04/17 09:34:12;;;;;;;35.72;32.22;;;13.80;99.90;;;;;;5113679;28;20041;-91
2023/04/17 09:36:40;;;;;;;36.33;24.92;;;14.00;99.90;;;;;;5095055;28;20047;-91
2023/04/17 09:39:22;;;;;;;35.35;32.05;;;14.10;99.90;;;;;;5076394;28;20118;-91
2023/04/17 09:41:48;;;;;;;29.17;21.67;;;14.30;99.90;;;;;;5096964;28;20046;-91
2023/04/17 09:44:25;;;;;;;30.75;21.85;;;14.40;99.90;;;;;;5097484;27;20036;-91
2023/04/17 09:46:52;;;;;;;29.77;24.48;;;14.40;99.90;;;;;;5104474;27;20043;-91
2023/04/17 09:49:41;;;;;;;32.72;29.52;;;14.50;99.90;;;;;;5103906;27;20037;-92
2023/04/17 09:52:08;;;;;;;32.13;28.92;;;14.70;99.90;;;;;;5106507;27;20077;-92
2023/04/17 09:54:37;;;;;;;30.55;20.10;;;14.80;99.90;;;;;;5120911;27;20042;-90
2023/04/17 09:57:07;;;;;;;32.92;29.80;;;14.80;99.90;;;;;;5105686;27;20038;-91
2023/04/17 09:59:35;;;;;;;30.13;27.25;;;15.00;99.90;;;;;;5104757;27;20039;-90
2023/04/17 10:02:01;;;;;;;29.13;26.08;;;15.00;99.90;;;;;;5101956;27;20031;-91
2023/04/17 10:04:28;;;;;;;27.90;25.00;;;15.10;99.90;;;;;;5109590;27;20121;-91
2023/04/17 10:06:56;;;;;;;29.85;26.90;;;15.20;99.90;;;;;;5124748;27;20094;-91
2023/04/17 10:09:22;;;;;;;24.27;19.02;;;15.30;99.90;;;;;;5105809;27;20038;-91
2023/04/17 10:11:48;;;;;;;27.83;24.85;;;15.30;99.90;;;;;;5108875;27;20038;-92
2023/04/17 10:14:26;;;;;;;27.92;25.23;;;15.40;99.90;;;;;;5123666;27;20069;-91
2023/04/17 10:16:53;;;;;;;25.42;22.73;;;15.60;99.90;;;;;;5107274;27;20050;-91
2023/04/17 10:19:32;;;;;;;23.60;21.23;;;15.80;99.90;;;;;;5116488;27;20039;-91
2023/04/17 10:22:18;;;;;;;22.95;20.63;;;16.00;99.90;;;;;;5090301;27;20043;-92
2023/04/17 10:24:46;;;;;;;24.00;17.40;;;16.10;99.90;;;;;;5104458;27;20083;-91
2023/04/17 10:27:24;;;;;;;18.25;16.38;;;16.10;99.90;;;;;;5106802;27;20611;-91
2023/04/17 10:30:01;;;;;;;22.08;19.75;;;16.20;95.40;;;;;;5108859;27;20486;-91
2023/04/17 10:32:30;;;;;;;20.73;18.45;;;16.40;96.20;;;;;;5108015;27;20086;-92
2023/04/17 10:35:03;;;;;;;19.70;15.55;;;16.50;95.30;;;;;;5104759;27;20035;-91
2023/04/17 10:40:20;;;;;;;19.05;17.05;;;16.60;93.40;;;;;;5129458;27;20043;-92
2023/04/17 10:43:33;;;;;;;18.33;16.52;;;16.70;92.90;;;;;;5116191;27;20058;-92
2023/04/17 10:46:02;;;;;;;18.98;15.02;;;16.90;94.30;;;;;;5102159;27;20039;-93
2023/04/17 10:48:37;;;;;;;19.60;17.60;;;17.20;95.00;;;;;;5098764;27;20047;-93
2023/04/17 10:51:23;;;;;;;20.13;17.67;;;17.40;95.70;;;;;;5084935;27;20027;-93
2023/04/17 10:53:59;;;;;;;17.45;13.98;;;17.70;94.10;;;;;;5108558;27;20536;-93
2023/04/17 10:56:39;;;;;;;14.38;12.48;;;17.70;86.30;;;;;;5102450;27;20027;-92
2023/04/17 10:59:10;;;;;;;17.05;14.38;;;17.60;82.20;;;;;;5105936;27;20042;-92
2023/04/17 11:01:36;;;;;;;18.48;13.77;;;17.50;82.00;;;;;;5106921;27;20035;-92
2023/04/17 11:04:03;;;;;;;16.90;13.18;;;17.50;80.60;;;;;;5105267;27;20130;-91
2023/04/17 11:06:31;;;;;;;15.88;12.93;;;17.40;80.70;;;;;;5110512;27;20060;-92
2023/04/17 11:08:58;;;;;;;16.63;13.27;;;17.50;79.00;;;;;;5094689;27;20043;-93
2023/04/17 11:11:24;;;;;;;14.32;12.82;;;17.60;76.70;;;;;;5126246;27;20031;-93
2023/04/17 11:13:50;;;;;;;19.05;13.48;;;17.70;76.80;;;;;;5106600;27;20114;-93
2023/04/17 11:16:16;;;;;;;16.23;12.20;;;17.80;77.70;;;;;;5103074;27;20165;-93
2023/04/17 11:18:43;;;;;;;15.43;13.57;;;17.90;78.10;;;;;;5121129;27;20491;-92
2023/04/17 11:21:15;;;;;;;17.77;13.00;;;18.00;76.90;;;;;;5122701;27;20042;-93
2023/04/17 11:23:52;;;;;;;16.13;13.15;;;18.00;75.20;;;;;;5108763;27;20101;-93
2023/04/17 11:26:19;;;;;;;14.88;12.90;;;18.10;75.70;;;;;;5122988;27;20043;-93
2023/04/17 11:28:46;;;;;;;14.70;11.85;;;18.20;74.40;;;;;;5122328;27;20038;-93
2023/04/17 11:31:12;;;;;;;15.63;11.77;;;18.40;74.20;;;;;;5106514;27;20087;-92
2023/04/17 11:33:38;;;;;;;17.40;12.27;;;18.50;74.80;;;;;;5109142;27;20122;-92
2023/04/17 11:36:07;;;;;;;16.70;12.40;;;18.70;74.70;;;;;;5118669;27;20515;-91
2023/04/17 11:38:33;;;;;;;15.70;12.88;;;18.80;73.60;;;;;;5116553;27;20547;-91
2023/04/17 11:41:00;;;;;;;15.65;12.38;;;18.80;73.90;;;;;;5077788;28;20031;-91
2023/04/17 11:43:28;;;;;;;15.73;12.32;;;18.80;73.70;;;;;;5084309;27;20377;-92
2023/04/17 11:45:56;;;;;;;16.20;13.13;;;18.90;73.90;;;;;;5095704;28;20707;-91
2023/04/17 11:48:26;;;;;;;16.33;13.27;;;18.90;73.40;;;;;;5083373;27;20035;-91
2023/04/17 11:50:57;;;;;;;15.63;12.90;;;18.90;73.40;;;;;;5098536;28;20067;-91
2023/04/17 11:53:23;;;;;;;15.18;12.82;;;19.00;73.70;;;;;;5093929;28;20054;-93
2023/04/17 11:56:09;;;;;;;14.98;12.70;;;19.00;73.30;;;;;;5091211;27;20066;-93
2023/04/17 11:58:47;;;;;;;15.05;12.10;;;19.20;73.90;;;;;;5097962;27;20035;-91
2023/04/17 12:01:13;;;;;;;15.68;12.88;;;19.40;74.20;;;;;;5128899;27;20080;-92
2023/04/17 12:03:40;;;;;;;15.23;13.35;;;19.60;73.70;;;;;;5091055;27;20825;-92
2023/04/17 12:06:05;;;;;;;15.75;13.25;;;19.70;74.40;;;;;;5093053;27;20038;-91
2023/04/17 12:08:46;;;;;;;16.92;14.05;;;19.90;73.40;;;;;;5085009;27;20106;-91
2023/04/17 12:11:31;;;;;;;15.05;12.68;;;19.90;71.50;;;;;;5105587;27;20039;-91
2023/04/17 12:13:58;;;;;;;15.65;13.52;;;19.70;70.40;;;;;;5097691;27;20038;-90
2023/04/17 12:16:24;;;;;;;15.10;13.52;;;19.50;70.70;;;;;;5094220;27;20114;-91
2023/04/17 12:18:50;;;;;;;14.68;13.10;;;19.40;70.30;;;;;;5102583;27;20507;-91
2023/04/17 12:21:18;;;;;;;15.02;12.80;;;19.40;69.80;;;;;;5087871;27;20059;-91
2023/04/17 12:23:43;;;;;;;18.05;13.82;;;19.30;69.80;;;;;;5086675;27;20047;-91
2023/04/17 12:26:09;;;;;;;15.18;13.10;;;19.30;70.20;;;;;;5096235;28;20042;-92
2023/04/17 12:28:35;;;;;;;16.30;14.23;;;19.50;71.40;;;;;;5076340;28;20390;-91
2023/04/17 12:31:01;;;;;;;15.68;14.07;;;19.70;71.60;;;;;;5084561;27;20058;-91
2023/04/17 12:33:27;;;;;;;16.20;13.52;;;19.90;70.20;;;;;;5096097;27;20495;-91
2023/04/17 12:35:53;;;;;;;16.50;12.80;;;20.10;69.80;;;;;;5096315;27;20038;-92